createdAt,value
2022-08-17T00:03:04.372Z,20.27
2022-08-17T00:06:00.711Z,20.31
2022-08-17T00:08:55.470Z,20.35
2022-08-17T00:12:41.774Z,20.37
2022-08-17T00:15:10.411Z,20.36
2022-08-17T00:18:03.087Z,20.33
2022-08-17T00:20:48.417Z,20.31
2022-08-17T00:23:44.358Z,20.26
2022-08-17T00:26:45.101Z,20.15
2022-08-17T00:29:37.825Z,20.06
2022-08-17T00:33:15.073Z,19.95
2022-08-17T00:35:48.131Z,19.88
2022-08-17T00:38:42.271Z,19.83
2022-08-17T00:41:28.479Z,19.82
2022-08-17T00:44:12.993Z,19.81
2022-08-17T00:47:05.257Z,19.77
2022-08-17T00:49:44.453Z,19.74
2022-08-17T00:52:28.117Z,19.71
2022-08-17T00:55:11.560Z,19.70
2022-08-17T00:58:06.840Z,19.68
2022-08-17T01:00:53.972Z,19.66
2022-08-17T01:03:49.125Z,19.68
2022-08-17T01:06:28.407Z,19.66
2022-08-17T01:09:22.738Z,19.65
2022-08-17T01:12:15.252Z,19.65
2022-08-17T01:15:01.536Z,19.62
2022-08-17T01:17:38.643Z,19.66
2022-08-17T01:20:31.187Z,19.64
2022-08-17T01:23:22.438Z,19.62
2022-08-17T01:26:02.934Z,19.57
2022-08-17T01:28:54.829Z,19.53
2022-08-17T01:31:36.245Z,19.50
2022-08-17T01:34:42.984Z,19.47
2022-08-17T01:37:22.046Z,19.40
2022-08-17T01:40:27.321Z,19.39
2022-08-17T01:43:24.311Z,19.37
2022-08-17T01:46:06.842Z,19.37
2022-08-17T01:49:02.972Z,19.34
2022-08-17T01:51:56.270Z,19.33
2022-08-17T01:54:50.267Z,19.34
2022-08-17T01:57:45.677Z,19.37
2022-08-17T02:00:59.654Z,19.34
2022-08-17T02:04:00.943Z,19.29
2022-08-17T02:06:54.689Z,19.27
2022-08-17T02:09:31.540Z,19.24
2022-08-17T02:12:37.839Z,19.22
2022-08-17T02:15:20.480Z,19.28
2022-08-17T02:18:15.005Z,19.35
2022-08-17T02:21:08.283Z,19.40
2022-08-17T02:24:00.571Z,19.45
2022-08-17T02:26:51.869Z,19.46
2022-08-17T02:29:48.031Z,19.48
2022-08-17T02:32:31.277Z,19.53
2022-08-17T02:35:28.419Z,19.57
2022-08-17T02:38:27.971Z,19.58
2022-08-17T02:41:21.541Z,19.53
2022-08-17T02:44:39.418Z,19.48
2022-08-17T02:47:29.185Z,19.41
2022-08-17T02:50:24.335Z,19.42
2022-08-17T02:53:16.733Z,19.42
2022-08-17T02:56:09.515Z,19.38
2022-08-17T02:59:01.662Z,19.35
2022-08-17T03:01:53.931Z,19.33
2022-08-17T03:04:49.682Z,19.32
2022-08-17T03:07:23.714Z,19.30
2022-08-17T03:10:17.659Z,19.22
2022-08-17T03:13:09.217Z,19.15
2022-08-17T03:16:01.465Z,19.10
2022-08-17T03:18:54.915Z,19.10
2022-08-17T03:21:46.984Z,19.18
2022-08-17T03:24:47.672Z,19.29
2022-08-17T03:27:48.701Z,19.40
2022-08-17T03:30:44.004Z,19.48
2022-08-17T03:33:24.976Z,19.56
2022-08-17T03:36:20.303Z,19.63
2022-08-17T03:39:14.052Z,19.74
2022-08-17T03:41:48.107Z,19.84
2022-08-17T03:44:40.438Z,19.93
2022-08-17T03:48:05.370Z,19.95
2022-08-17T03:51:16.726Z,19.95
2022-08-17T03:54:27.979Z,19.91
2022-08-17T03:57:06.192Z,19.95
2022-08-17T03:59:58.832Z,20.04
2022-08-17T04:02:45.141Z,19.99
2022-08-17T04:05:37.674Z,19.89
2022-08-17T04:08:30.263Z,19.81
2022-08-17T04:11:16.104Z,19.76
2022-08-17T04:14:10.658Z,19.73
2022-08-17T04:17:02.853Z,19.74
2022-08-17T04:19:56.910Z,19.72
2022-08-17T04:22:56.158Z,19.74
2022-08-17T04:25:54.054Z,19.80
2022-08-17T04:28:46.913Z,19.89
2022-08-17T04:31:39.278Z,19.92
2022-08-17T04:34:35.411Z,19.98
2022-08-17T04:37:16.552Z,20.06
2022-08-17T04:40:28.082Z,20.16
2022-08-17T04:43:13.445Z,20.31
2022-08-17T04:46:09.590Z,20.50
2022-08-17T04:49:03.535Z,20.62
2022-08-17T04:52:00.122Z,20.66
2022-08-17T04:54:56.639Z,20.64
2022-08-17T04:57:45.079Z,20.62
2022-08-17T05:00:40.003Z,20.59
2022-08-17T05:03:23.134Z,20.53
2022-08-17T05:06:18.506Z,20.53
2022-08-17T05:09:10.980Z,20.57
2022-08-17T05:11:57.479Z,20.61
2022-08-17T05:14:43.883Z,20.66
2022-08-17T05:17:36.016Z,20.70
2022-08-17T05:20:32.271Z,20.77
2022-08-17T05:23:36.527Z,20.88
2022-08-17T05:26:36.441Z,20.99
2022-08-17T05:29:35.196Z,21.10
2022-08-17T05:32:38.702Z,21.24
2022-08-17T05:35:24.495Z,21.41
2022-08-17T05:38:17.999Z,21.62
2022-08-17T05:41:11.685Z,21.85
2022-08-17T05:44:05.422Z,22.04
2022-08-17T05:47:00.694Z,22.19
2022-08-17T05:49:53.791Z,22.32
2022-08-17T05:52:56.187Z,22.38
2022-08-17T05:55:36.147Z,22.37
2022-08-17T05:58:32.753Z,22.43
2022-08-17T06:01:36.652Z,22.41
2022-08-17T06:04:44.289Z,22.34
2022-08-17T06:07:22.192Z,22.40
2022-08-17T06:10:13.634Z,22.56
2022-08-17T06:13:17.015Z,22.93
2022-08-17T06:16:33.891Z,23.29
2022-08-17T06:19:34.656Z,23.49
2022-08-17T06:22:12.726Z,23.73
2022-08-17T06:25:10.213Z,24.01
2022-08-17T06:27:46.501Z,24.14
2022-08-17T06:30:22.057Z,24.07
2022-08-17T06:33:05.868Z,24.04
2022-08-17T06:36:02.739Z,24.00
2022-08-17T06:38:54.469Z,24.04
2022-08-17T06:41:39.133Z,24.02
2022-08-17T06:44:43.402Z,24.12
2022-08-17T06:47:30.149Z,24.00
2022-08-17T06:50:10.086Z,23.92
2022-08-17T06:52:51.035Z,24.05
2022-08-17T06:55:32.186Z,24.19
2022-08-17T06:58:15.758Z,24.38
2022-08-17T07:00:59.327Z,24.57
2022-08-17T07:03:58.269Z,24.75
2022-08-17T07:06:46.957Z,24.94
2022-08-17T07:09:26.776Z,25.03
2022-08-17T07:12:12.486Z,25.01
2022-08-17T07:14:54.156Z,25.08
2022-08-17T07:17:47.978Z,25.18
2022-08-17T07:20:23.706Z,25.21
2022-08-17T07:23:02.189Z,25.24
2022-08-17T07:25:37.630Z,25.33
2022-08-17T07:28:12.567Z,25.49
2022-08-17T07:30:51.657Z,25.68
2022-08-17T07:33:30.343Z,25.73
2022-08-17T07:39:29.037Z,25.81
2022-08-17T07:42:07.010Z,25.81
2022-08-17T07:44:53.952Z,25.89
2022-08-17T07:47:43.866Z,25.91
2022-08-17T07:50:30.254Z,26.05
2022-08-17T07:53:19.074Z,26.16
2022-08-17T07:55:55.381Z,26.33
2022-08-17T07:58:27.421Z,26.54
2022-08-17T08:01:11.208Z,26.83
2022-08-17T08:03:52.439Z,26.99
2022-08-17T08:06:27.962Z,27.19
2022-08-17T08:09:01.258Z,27.56
2022-08-17T08:11:38.321Z,27.83
2022-08-17T08:14:31.617Z,27.99
2022-08-17T08:17:09.308Z,28.15
2022-08-17T08:19:51.846Z,28.41
2022-08-17T08:22:41.184Z,28.52
2022-08-17T08:25:25.354Z,28.58
2022-08-17T08:28:14.334Z,28.71
2022-08-17T08:30:51.063Z,28.83
2022-08-17T08:33:55.044Z,28.81
2022-08-17T08:37:14.545Z,28.80
2022-08-17T08:39:44.746Z,28.72
2022-08-17T08:42:27.619Z,28.68
2022-08-17T08:45:11.541Z,28.70
2022-08-17T08:48:00.349Z,28.80
2022-08-17T08:50:49.546Z,28.68
2022-08-17T08:53:36.763Z,28.53
2022-08-17T08:56:17.792Z,28.45
2022-08-17T08:58:59.473Z,28.40
2022-08-17T09:01:51.839Z,28.44
2022-08-17T09:05:13.448Z,28.66
2022-08-17T09:07:59.419Z,28.91
2022-08-17T09:10:36.051Z,29.22
2022-08-17T09:13:14.996Z,29.35
2022-08-17T09:15:51.265Z,29.31
2022-08-17T09:19:02.816Z,29.18
2022-08-17T09:21:27.216Z,29.08
2022-08-17T09:24:06.259Z,28.92
2022-08-17T09:26:47.116Z,28.92
2022-08-17T09:29:25.642Z,28.86
2022-08-17T09:32:17.577Z,28.80
2022-08-17T09:34:54.968Z,28.62
2022-08-17T09:37:33.973Z,28.40
2022-08-17T09:40:24.516Z,28.19
2022-08-17T09:43:09.030Z,28.12
2022-08-17T09:45:58.507Z,28.23
2022-08-17T09:48:36.949Z,28.23
2022-08-17T09:51:14.838Z,28.24
2022-08-17T09:53:47.197Z,28.26
2022-08-17T09:57:06.026Z,28.35
2022-08-17T09:59:59.722Z,28.61
2022-08-17T10:03:01.691Z,28.72
2022-08-17T10:05:45.646Z,28.72
2022-08-17T10:08:30.284Z,28.75
2022-08-17T10:11:12.851Z,28.81
2022-08-17T10:13:53.200Z,28.95
2022-08-17T10:16:32.382Z,29.09
2022-08-17T10:19:14.921Z,29.15
2022-08-17T10:22:32.313Z,29.17
2022-08-17T10:25:24.873Z,29.20
2022-08-17T10:28:09.016Z,29.27
2022-08-17T10:30:57.981Z,29.53
2022-08-17T10:33:58.642Z,29.77
2022-08-17T10:36:49.462Z,29.94
2022-08-17T10:39:31.029Z,30.08
2022-08-17T10:42:30.891Z,30.18
2022-08-17T10:45:16.899Z,30.22
2022-08-17T10:48:06.055Z,30.38
2022-08-17T10:50:59.362Z,30.54
2022-08-17T10:53:58.784Z,30.79
2022-08-17T10:56:58.052Z,31.06
2022-08-17T10:59:51.967Z,31.08
2022-08-17T11:02:31.602Z,31.17
2022-08-17T11:05:34.271Z,31.31
2022-08-17T11:08:45.829Z,31.44
2022-08-17T11:11:54.546Z,31.29
2022-08-17T11:14:51.799Z,31.14
2022-08-17T11:17:41.695Z,31.02
2022-08-17T11:20:46.962Z,30.95
2022-08-17T11:23:52.528Z,30.94
2022-08-17T11:26:29.752Z,30.83
2022-08-17T11:29:03.279Z,30.75
2022-08-17T11:31:40.195Z,30.56
2022-08-17T11:34:21.879Z,30.36
2022-08-17T11:37:12.831Z,30.32
2022-08-17T11:40:06.088Z,30.33
2022-08-17T11:43:17.490Z,30.35
2022-08-17T11:46:04.030Z,30.46
2022-08-17T11:49:05.877Z,30.56
2022-08-17T11:51:56.293Z,30.64
2022-08-17T11:54:45.405Z,30.80
2022-08-17T11:58:06.138Z,30.89
2022-08-17T12:00:54.865Z,31.00
2022-08-17T12:03:58.206Z,31.04
2022-08-17T12:06:46.094Z,31.03
2022-08-17T12:09:22.138Z,30.90
2022-08-17T12:12:12.571Z,30.62
2022-08-17T12:15:09.998Z,30.45
2022-08-17T12:17:48.528Z,30.42
2022-08-17T12:20:27.998Z,30.57
2022-08-17T12:23:10.726Z,30.67
2022-08-17T12:25:51.466Z,30.84
2022-08-17T12:28:27.961Z,31.07
2022-08-17T12:31:03.585Z,31.38
2022-08-17T12:33:37.571Z,31.55
2022-08-17T12:36:20.133Z,31.60
2022-08-17T12:38:59.615Z,31.57
2022-08-17T12:41:48.339Z,31.37
2022-08-17T12:44:25.486Z,31.24
2022-08-17T12:47:04.743Z,31.26
2022-08-17T12:49:39.491Z,31.38
2022-08-17T12:52:19.080Z,31.45
2022-08-17T12:54:55.694Z,31.30
2022-08-17T12:57:32.893Z,30.96
2022-08-17T13:00:17.930Z,30.79
2022-08-17T13:02:56.899Z,30.81
2022-08-17T13:05:36.107Z,31.03
2022-08-17T13:08:18.638Z,31.24
2022-08-17T13:10:59.548Z,31.39
2022-08-17T13:13:36.900Z,31.45
2022-08-17T13:16:17.164Z,31.33
2022-08-17T13:18:54.581Z,31.04
2022-08-17T13:21:33.364Z,30.71
2022-08-17T13:24:17.022Z,30.40
2022-08-17T13:26:55.756Z,30.21
2022-08-17T13:29:34.896Z,30.16
2022-08-17T13:32:23.024Z,30.17
2022-08-17T13:35:15.315Z,30.12
2022-08-17T13:37:59.755Z,29.95
2022-08-17T13:40:42.234Z,29.94
2022-08-17T13:43:34.838Z,30.09
2022-08-17T13:46:13.381Z,30.27
2022-08-17T13:49:04.030Z,30.45
2022-08-17T13:51:46.874Z,30.52
2022-08-17T13:54:28.064Z,30.70
2022-08-17T13:57:03.711Z,30.87
2022-08-17T13:59:54.546Z,31.03
2022-08-17T14:02:30.486Z,31.23
2022-08-17T14:05:06.036Z,31.58
2022-08-17T14:07:41.154Z,31.88
2022-08-17T14:10:17.414Z,31.92
2022-08-17T14:12:59.857Z,31.88
2022-08-17T14:15:54.809Z,31.89
2022-08-17T14:18:50.519Z,31.77
2022-08-17T14:21:19.722Z,31.85
2022-08-17T14:23:54.673Z,31.94
2022-08-17T14:26:27.881Z,32.04
2022-08-17T14:29:02.396Z,32.10
2022-08-17T14:31:37.516Z,32.17
2022-08-17T14:34:10.829Z,32.26
2022-08-17T14:36:48.367Z,32.31
2022-08-17T14:39:23.494Z,32.37
2022-08-17T14:41:56.209Z,32.35
2022-08-17T14:44:28.070Z,32.26
2022-08-17T14:46:59.932Z,32.22
2022-08-17T14:49:32.171Z,32.25
2022-08-17T14:52:04.443Z,32.30
2022-08-17T14:54:36.132Z,32.41
2022-08-17T14:57:25.131Z,32.40
2022-08-17T15:00:00.947Z,32.39
2022-08-17T15:02:43.783Z,32.16
2022-08-17T15:05:17.825Z,31.84
2022-08-17T15:07:49.799Z,31.49
2022-08-17T15:10:22.283Z,31.22
2022-08-17T15:12:54.524Z,31.13
2022-08-17T15:15:27.128Z,31.05
2022-08-17T15:18:02.595Z,30.99
2022-08-17T15:20:35.713Z,30.86
2022-08-17T15:23:09.778Z,30.82
2022-08-17T15:25:44.867Z,30.76
2022-08-17T15:28:20.591Z,30.67
2022-08-17T15:30:53.403Z,30.61
2022-08-17T15:33:29.905Z,30.59
2022-08-17T15:36:04.858Z,30.65
2022-08-17T15:38:39.700Z,30.61
2022-08-17T15:41:15.283Z,30.62
2022-08-17T15:43:48.646Z,30.64
2022-08-17T15:46:24.547Z,30.65
2022-08-17T15:48:59.067Z,30.64
2022-08-17T15:51:32.993Z,30.59
2022-08-17T15:54:18.767Z,30.50
2022-08-17T15:56:54.405Z,30.40
2022-08-17T15:59:26.192Z,30.30
2022-08-17T16:03:14.687Z,30.16
2022-08-17T16:04:52.062Z,30.05
2022-08-17T16:07:26.887Z,29.91
2022-08-17T16:09:58.747Z,29.72
2022-08-17T16:12:30.824Z,29.58
2022-08-17T16:15:03.554Z,29.54
2022-08-17T16:17:39.549Z,29.38
2022-08-17T16:20:20.134Z,29.16
2022-08-17T16:22:52.948Z,29.01
2022-08-17T16:25:52.089Z,28.87
2022-08-17T16:28:23.502Z,28.76
2022-08-17T16:31:09.325Z,28.74
2022-08-17T16:33:41.550Z,28.74
2022-08-17T16:36:13.326Z,28.68
2022-08-17T16:38:45.184Z,28.61
2022-08-17T16:41:37.750Z,28.50
2022-08-17T16:44:09.664Z,28.33
2022-08-17T16:46:59.051Z,28.14
2022-08-17T16:49:36.713Z,27.97
2022-08-17T16:52:11.465Z,27.85
2022-08-17T16:54:46.993Z,27.79
2022-08-17T16:57:19.148Z,27.86
2022-08-17T16:59:51.549Z,27.94
2022-08-17T17:02:32.200Z,27.99
2022-08-17T17:05:09.112Z,28.00
2022-08-17T17:07:59.287Z,27.94
2022-08-17T17:10:34.334Z,27.82
2022-08-17T17:13:09.835Z,27.65
2022-08-17T17:15:58.945Z,27.51
2022-08-17T17:18:40.382Z,27.35
2022-08-17T17:21:20.395Z,27.18
2022-08-17T17:23:57.279Z,27.04
2022-08-17T17:26:43.239Z,26.91
2022-08-17T17:29:29.710Z,26.76
2022-08-17T17:32:27.343Z,26.59
2022-08-17T17:35:05.701Z,26.44
2022-08-17T17:37:39.252Z,26.28
2022-08-17T17:40:19.192Z,26.12
2022-08-17T17:42:53.587Z,25.98
2022-08-17T17:45:38.667Z,25.83
2022-08-17T17:48:13.039Z,25.72
2022-08-17T17:50:55.660Z,25.63
2022-08-17T17:53:35.440Z,25.51
2022-08-17T17:56:39.824Z,25.39
2022-08-17T17:59:27.745Z,25.26
2022-08-17T18:02:35.475Z,25.13
2022-08-17T18:05:16.513Z,25.01
2022-08-17T18:07:54.505Z,24.88
2022-08-17T18:10:34.110Z,24.72
2022-08-17T18:13:19.450Z,24.63
2022-08-17T18:15:55.440Z,24.56
2022-08-17T18:18:44.142Z,24.48
2022-08-17T18:21:19.534Z,24.40
2022-08-17T18:23:55.916Z,24.34
2022-08-17T18:26:41.927Z,24.27
2022-08-17T18:29:32.466Z,24.22
2022-08-17T18:32:35.102Z,24.17
2022-08-17T18:35:28.712Z,24.12
2022-08-17T18:38:20.907Z,24.07
2022-08-17T18:41:04.000Z,24.02
2022-08-17T18:43:53.001Z,23.99
2022-08-17T18:46:30.157Z,23.96
2022-08-17T18:49:05.420Z,23.94
2022-08-17T18:51:42.693Z,23.90
2022-08-17T18:54:23.680Z,23.83
2022-08-17T18:56:57.984Z,23.74
2022-08-17T18:59:36.057Z,23.61
2022-08-17T19:02:45.979Z,23.50
2022-08-17T19:05:33.715Z,23.37
2022-08-17T19:08:19.845Z,23.23
2022-08-17T19:10:54.360Z,23.12
2022-08-17T19:13:33.286Z,23.08
2022-08-17T19:16:14.571Z,23.05
2022-08-17T19:18:53.835Z,22.93
2022-08-17T19:21:31.670Z,22.85
2022-08-17T19:24:06.292Z,22.82
2022-08-17T19:26:53.953Z,22.75
2022-08-17T19:29:37.857Z,22.71
2022-08-17T19:32:14.950Z,22.69
2022-08-17T19:34:47.918Z,22.67
2022-08-17T19:37:40.478Z,22.64
2022-08-17T19:40:50.969Z,22.66
2022-08-17T19:43:24.423Z,22.69
2022-08-17T19:46:08.788Z,22.69
2022-08-17T19:48:53.171Z,22.66
2022-08-17T19:51:44.782Z,22.60
2022-08-17T19:54:26.620Z,22.54
2022-08-17T19:57:05.698Z,22.50
2022-08-17T19:59:51.327Z,22.46
2022-08-17T20:02:33.840Z,22.40
2022-08-17T20:05:11.577Z,22.32
2022-08-17T20:07:44.718Z,22.26
2022-08-17T20:10:24.408Z,22.19
2022-08-17T20:13:03.060Z,22.11
2022-08-17T20:15:37.923Z,22.05
2022-08-17T20:18:22.640Z,21.98
2022-08-17T20:21:03.001Z,21.89
2022-08-17T20:23:52.200Z,21.80
2022-08-17T20:26:28.293Z,21.76
2022-08-17T20:29:37.686Z,21.79
2022-08-17T20:32:25.610Z,21.80
2022-08-17T20:35:22.250Z,21.79
2022-08-17T20:38:02.230Z,21.73
2022-08-17T20:40:38.360Z,21.66
2022-08-17T20:43:40.987Z,21.61
2022-08-17T20:46:39.509Z,21.52
2022-08-17T20:49:25.342Z,21.43
2022-08-17T20:52:07.786Z,21.40
2022-08-17T20:54:53.210Z,21.40
2022-08-17T20:57:49.104Z,21.40
2022-08-17T21:00:45.753Z,21.34
2022-08-17T21:03:52.269Z,21.36
2022-08-17T21:06:26.468Z,21.40
2022-08-17T21:09:21.479Z,21.41
2022-08-17T21:12:05.658Z,21.40
2022-08-17T21:14:58.721Z,21.35
2022-08-17T21:17:51.319Z,21.30
2022-08-17T21:20:35.775Z,21.20
2022-08-17T21:23:24.910Z,21.10
2022-08-17T21:26:33.001Z,21.04
2022-08-17T21:29:31.806Z,20.99
2022-08-17T21:32:24.578Z,20.93
2022-08-17T21:35:28.816Z,20.89
2022-08-17T21:38:06.217Z,20.90
2022-08-17T21:40:44.706Z,20.82
2022-08-17T21:43:28.170Z,20.79
2022-08-17T21:46:05.080Z,20.79
2022-08-17T21:48:45.104Z,20.78
2022-08-17T21:51:23.852Z,20.79
2022-08-17T21:53:57.427Z,20.72
2022-08-17T21:56:34.046Z,20.65
2022-08-17T21:59:09.646Z,20.63
2022-08-17T22:01:45.877Z,20.62
2022-08-17T22:04:26.101Z,20.64
2022-08-17T22:06:59.101Z,20.67
2022-08-17T22:09:32.816Z,20.71
2022-08-17T22:12:09.208Z,20.75
2022-08-17T22:14:53.027Z,20.77
2022-08-17T22:17:27.570Z,20.76
2022-08-17T22:20:01.466Z,20.75
2022-08-17T22:22:57.991Z,20.69
2022-08-17T22:25:32.084Z,20.62
2022-08-17T22:28:06.521Z,20.52
2022-08-17T22:30:41.853Z,20.43
2022-08-17T22:33:37.006Z,20.36
2022-08-17T22:36:15.250Z,20.28
2022-08-17T22:38:47.360Z,20.19
2022-08-17T22:41:44.890Z,20.10
2022-08-17T22:44:24.223Z,20.07
2022-08-17T22:47:02.829Z,20.04
2022-08-17T22:49:53.405Z,20.01
2022-08-17T22:52:33.132Z,19.96
2022-08-17T22:55:31.033Z,19.94
2022-08-17T22:58:30.732Z,19.94
2022-08-17T23:01:28.261Z,19.89
2022-08-17T23:03:59.954Z,19.79
2022-08-17T23:06:33.932Z,19.71
2022-08-17T23:09:08.116Z,19.64
2022-08-17T23:11:49.366Z,19.61
2022-08-17T23:14:23.038Z,19.61
2022-08-17T23:16:58.264Z,19.61
2022-08-17T23:19:33.350Z,19.65
2022-08-17T23:22:09.125Z,19.69
2022-08-17T23:24:49.064Z,19.69
2022-08-17T23:27:22.242Z,19.69
2022-08-17T23:29:57.710Z,19.73
2022-08-17T23:32:29.784Z,19.73
2022-08-17T23:35:01.905Z,19.68
2022-08-17T23:37:33.765Z,19.62
2022-08-17T23:40:08.607Z,19.57
2022-08-17T23:42:46.329Z,19.54
2022-08-17T23:45:19.379Z,19.53
2022-08-17T23:47:51.189Z,19.52
2022-08-17T23:50:25.224Z,19.47
2022-08-17T23:53:03.178Z,19.46
2022-08-17T23:55:35.554Z,19.45
2022-08-17T23:58:09.834Z,19.42
